Terminal Aerodrome Forecast
Issued by NWS

Home | Current Version | Previous Version | Text Only | Print | Product List | Glossary On
Versions: 1 2 3 4 5 6 7 8 9 10 11 12 13 14 15 16 17 18 19 20 21 22 23 24 25 26 27 28 29 30
295
FTUS43 KLSX 060253 AAA
TAFUIN
TAF AMD
KUIN 060253Z 0603/0624 12007KT 4SM BR OVC005
     FM060900 VRB03KT 1 1/2SM BR OVC003
     FM061400 30008KT 4SM BR OVC003
     FM061500 31011KT P6SM BKN008
     FM061700 30013G19KT P6SM SCT050
     FM062300 28009KT P6SM FEW250=

USA.gov is the U.S. government's official web portal to all federal, state and local government web resources and services.